sensor_id;sensor_type;location;lat;lon;timestamp;P1;durP1;ratioP1;P2;durP2;ratioP2
15002;SDS011;7597;53.590;10.020;2022-09-13T00:00:15;5.57;;;5.00;;
15002;SDS011;7597;53.590;10.020;2022-09-13T00:02:41;5.35;;;4.85;;
15002;SDS011;7597;53.590;10.020;2022-09-13T00:05:08;7.57;;;5.18;;
15002;SDS011;7597;53.590;10.020;2022-09-13T00:07:35;6.15;;;5.55;;
15002;SDS011;7597;53.590;10.020;2022-09-13T00:10:02;5.37;;;4.85;;
15002;SDS011;7597;53.590;10.020;2022-09-13T00:12:30;5.22;;;4.80;;
15002;SDS011;7597;53.590;10.020;2022-09-13T00:14:56;5.70;;;4.70;;
15002;SDS011;7597;53.590;10.020;2022-09-13T00:17:23;5.40;;;4.90;;
15002;SDS011;7597;53.590;10.020;2022-09-13T00:19:50;7.05;;;5.50;;
15002;SDS011;7597;53.590;10.020;2022-09-13T00:22:17;5.93;;;5.32;;
15002;SDS011;7597;53.590;10.020;2022-09-13T00:24:43;5.87;;;5.28;;
15002;SDS011;7597;53.590;10.020;2022-09-13T00:27:10;5.25;;;4.78;;
15002;SDS011;7597;53.590;10.020;2022-09-13T00:29:37;5.60;;;4.72;;
15002;SDS011;7597;53.590;10.020;2022-09-13T00:32:04;5.65;;;5.15;;
15002;SDS011;7597;53.590;10.020;2022-09-13T00:34:31;6.12;;;5.45;;
15002;SDS011;7597;53.590;10.020;2022-09-13T00:36:57;5.82;;;5.22;;
15002;SDS011;7597;53.590;10.020;2022-09-13T00:39:24;5.90;;;5.22;;
15002;SDS011;7597;53.590;10.020;2022-09-13T00:41:51;9.10;;;5.90;;
15002;SDS011;7597;53.590;10.020;2022-09-13T00:46:56;6.62;;;5.85;;
15002;SDS011;7597;53.590;10.020;2022-09-13T00:49:26;6.78;;;5.80;;
15002;SDS011;7597;53.590;10.020;2022-09-13T00:51:51;7.50;;;6.60;;
15002;SDS011;7597;53.590;10.020;2022-09-13T00:54:16;6.62;;;6.03;;
15002;SDS011;7597;53.590;10.020;2022-09-13T00:56:44;6.32;;;5.72;;
15002;SDS011;7597;53.590;10.020;2022-09-13T00:59:12;7.10;;;6.40;;
15002;SDS011;7597;53.590;10.020;2022-09-13T01:01:41;6.90;;;6.30;;
15002;SDS011;7597;53.590;10.020;2022-09-13T01:04:06;8.35;;;7.22;;
15002;SDS011;7597;53.590;10.020;2022-09-13T01:06:33;7.72;;;7.03;;
15002;SDS011;7597;53.590;10.020;2022-09-13T01:09:00;8.40;;;7.10;;
15002;SDS011;7597;53.590;10.020;2022-09-13T01:11:32;8.93;;;7.07;;
15002;SDS011;7597;53.590;10.020;2022-09-13T01:14:13;8.55;;;6.72;;
15002;SDS011;7597;53.590;10.020;2022-09-13T01:16:40;7.43;;;6.78;;
15002;SDS011;7597;53.590;10.020;2022-09-13T01:19:07;7.07;;;6.47;;
15002;SDS011;7597;53.590;10.020;2022-09-13T01:30:23;7.03;;;6.32;;
15002;SDS011;7597;53.590;10.020;2022-09-13T01:32:55;9.50;;;6.70;;
15002;SDS011;7597;53.590;10.020;2022-09-13T01:35:22;7.72;;;6.82;;
15002;SDS011;7597;53.590;10.020;2022-09-13T01:40:41;7.78;;;6.82;;
15002;SDS011;7597;53.590;10.020;2022-09-13T01:46:05;8.20;;;6.80;;
15002;SDS011;7597;53.590;10.020;2022-09-13T01:48:37;8.27;;;7.00;;
15002;SDS011;7597;53.590;10.020;2022-09-13T01:51:04;7.93;;;7.12;;
15002;SDS011;7597;53.590;10.020;2022-09-13T01:53:38;8.43;;;6.95;;
15002;SDS011;7597;53.590;10.020;2022-09-13T01:56:03;9.88;;;8.05;;
15002;SDS011;7597;53.590;10.020;2022-09-13T01:58:47;10.05;;;7.43;;
15002;SDS011;7597;53.590;10.020;2022-09-13T02:01:29;9.40;;;7.60;;
15002;SDS011;7597;53.590;10.020;2022-09-13T02:03:57;12.00;;;7.43;;
15002;SDS011;7597;53.590;10.020;2022-09-13T02:06:24;10.02;;;7.47;;
15002;SDS011;7597;53.590;10.020;2022-09-13T02:08:52;10.70;;;7.15;;
15002;SDS011;7597;53.590;10.020;2022-09-13T02:11:20;8.32;;;7.15;;
15002;SDS011;7597;53.590;10.020;2022-09-13T02:13:48;10.52;;;7.55;;
15002;SDS011;7597;53.590;10.020;2022-09-13T02:16:18;8.27;;;6.80;;
15002;SDS011;7597;53.590;10.020;2022-09-13T02:18:46;8.73;;;7.32;;
15002;SDS011;7597;53.590;10.020;2022-09-13T02:21:16;8.35;;;7.03;;
15002;SDS011;7597;53.590;10.020;2022-09-13T02:23:44;8.80;;;7.90;;
15002;SDS011;7597;53.590;10.020;2022-09-13T02:26:10;9.30;;;7.28;;
15002;SDS011;7597;53.590;10.020;2022-09-13T02:28:37;7.65;;;6.95;;
15002;SDS011;7597;53.590;10.020;2022-09-13T02:31:03;7.47;;;6.72;;
15002;SDS011;7597;53.590;10.020;2022-09-13T02:33:31;8.50;;;7.35;;
15002;SDS011;7597;53.590;10.020;2022-09-13T02:35:59;8.13;;;6.87;;
15002;SDS011;7597;53.590;10.020;2022-09-13T02:38:26;8.15;;;7.18;;
15002;SDS011;7597;53.590;10.020;2022-09-13T02:40:59;9.98;;;7.65;;
15002;SDS011;7597;53.590;10.020;2022-09-13T02:43:42;9.75;;;7.45;;
15002;SDS011;7597;53.590;10.020;2022-09-13T02:46:14;8.48;;;7.00;;
15002;SDS011;7597;53.590;10.020;2022-09-13T02:51:21;8.73;;;7.05;;
15002;SDS011;7597;53.590;10.020;2022-09-13T02:53:49;10.30;;;7.22;;
15002;SDS011;7597;53.590;10.020;2022-09-13T02:56:20;8.48;;;7.32;;
15002;SDS011;7597;53.590;10.020;2022-09-13T02:58:50;8.15;;;7.35;;
15002;SDS011;7597;53.590;10.020;2022-09-13T03:01:15;8.25;;;7.40;;
15002;SDS011;7597;53.590;10.020;2022-09-13T03:03:42;10.93;;;7.20;;
15002;SDS011;7597;53.590;10.020;2022-09-13T03:06:09;9.82;;;8.27;;
15002;SDS011;7597;53.590;10.020;2022-09-13T03:08:36;8.93;;;6.93;;
15002;SDS011;7597;53.590;10.020;2022-09-13T03:11:37;8.43;;;7.53;;
15002;SDS011;7597;53.590;10.020;2022-09-13T03:14:22;7.80;;;6.78;;
15002;SDS011;7597;53.590;10.020;2022-09-13T03:16:59;8.32;;;7.37;;
15002;SDS011;7597;53.590;10.020;2022-09-13T03:22:23;9.77;;;8.30;;
15002;SDS011;7597;53.590;10.020;2022-09-13T03:25:58;9.07;;;8.07;;
15002;SDS011;7597;53.590;10.020;2022-09-13T03:27:55;11.50;;;7.65;;
15002;SDS011;7597;53.590;10.020;2022-09-13T03:30:21;11.77;;;8.35;;
15002;SDS011;7597;53.590;10.020;2022-09-13T03:32:53;10.30;;;8.15;;
15002;SDS011;7597;53.590;10.020;2022-09-13T03:35:36;9.65;;;8.70;;
15002;SDS011;7597;53.590;10.020;2022-09-13T03:38:14;13.07;;;9.65;;
15002;SDS011;7597;53.590;10.020;2022-09-13T03:40:42;12.02;;;9.20;;
15002;SDS011;7597;53.590;10.020;2022-09-13T03:43:12;12.15;;;9.95;;
15002;SDS011;7597;53.590;10.020;2022-09-13T03:45:41;14.25;;;10.98;;
15002;SDS011;7597;53.590;10.020;2022-09-13T03:48:06;13.98;;;11.50;;
15002;SDS011;7597;53.590;10.020;2022-09-13T03:50:33;12.82;;;10.77;;
15002;SDS011;7597;53.590;10.020;2022-09-13T03:53:02;14.73;;;12.25;;
15002;SDS011;7597;53.590;10.020;2022-09-13T03:55:27;12.85;;;11.45;;
15002;SDS011;7597;53.590;10.020;2022-09-13T03:57:53;15.02;;;11.85;;
15002;SDS011;7597;53.590;10.020;2022-09-13T04:00:21;12.88;;;11.15;;
15002;SDS011;7597;53.590;10.020;2022-09-13T04:02:48;16.75;;;13.27;;
15002;SDS011;7597;53.590;10.020;2022-09-13T04:05:15;14.82;;;12.00;;
15002;SDS011;7597;53.590;10.020;2022-09-13T04:07:42;14.85;;;12.55;;
15002;SDS011;7597;53.590;10.020;2022-09-13T04:10:08;15.82;;;12.93;;
15002;SDS011;7597;53.590;10.020;2022-09-13T04:12:35;17.15;;;13.55;;
15002;SDS011;7597;53.590;10.020;2022-09-13T04:15:02;17.48;;;14.27;;
15002;SDS011;7597;53.590;10.020;2022-09-13T04:17:29;19.08;;;15.10;;
15002;SDS011;7597;53.590;10.020;2022-09-13T04:19:56;19.58;;;15.05;;
15002;SDS011;7597;53.590;10.020;2022-09-13T04:22:23;19.42;;;15.65;;
15002;SDS011;7597;53.590;10.020;2022-09-13T04:24:50;18.90;;;15.15;;
15002;SDS011;7597;53.590;10.020;2022-09-13T04:27:17;17.65;;;14.95;;
15002;SDS011;7597;53.590;10.020;2022-09-13T04:29:44;21.35;;;16.45;;
15002;SDS011;7597;53.590;10.020;2022-09-13T04:32:10;19.60;;;15.05;;
15002;SDS011;7597;53.590;10.020;2022-09-13T04:34:37;20.95;;;16.92;;
15002;SDS011;7597;53.590;10.020;2022-09-13T04:37:04;24.80;;;18.80;;
15002;SDS011;7597;53.590;10.020;2022-09-13T04:39:30;24.27;;;18.67;;
15002;SDS011;7597;53.590;10.020;2022-09-13T04:41:57;27.83;;;19.45;;
15002;SDS011;7597;53.590;10.020;2022-09-13T04:44:24;30.90;;;19.92;;
15002;SDS011;7597;53.590;10.020;2022-09-13T04:46:51;31.83;;;21.42;;
15002;SDS011;7597;53.590;10.020;2022-09-13T04:49:18;28.90;;;21.17;;
15002;SDS011;7597;53.590;10.020;2022-09-13T04:51:45;31.42;;;21.40;;
15002;SDS011;7597;53.590;10.020;2022-09-13T04:54:11;30.30;;;22.10;;
15002;SDS011;7597;53.590;10.020;2022-09-13T04:56:38;34.90;;;23.25;;
15002;SDS011;7597;53.590;10.020;2022-09-13T04:59:05;35.47;;;22.90;;
15002;SDS011;7597;53.590;10.020;2022-09-13T05:01:32;35.40;;;23.33;;
15002;SDS011;7597;53.590;10.020;2022-09-13T05:03:59;34.03;;;23.90;;
15002;SDS011;7597;53.590;10.020;2022-09-13T05:06:26;39.83;;;24.70;;
15002;SDS011;7597;53.590;10.020;2022-09-13T05:08:53;36.90;;;24.67;;
15002;SDS011;7597;53.590;10.020;2022-09-13T05:11:21;39.78;;;25.98;;
15002;SDS011;7597;53.590;10.020;2022-09-13T05:13:47;43.33;;;26.27;;
15002;SDS011;7597;53.590;10.020;2022-09-13T05:16:14;41.10;;;27.00;;
15002;SDS011;7597;53.590;10.020;2022-09-13T05:18:41;42.70;;;27.37;;
15002;SDS011;7597;53.590;10.020;2022-09-13T05:21:08;44.30;;;27.13;;
15002;SDS011;7597;53.590;10.020;2022-09-13T05:23:34;40.97;;;27.75;;
15002;SDS011;7597;53.590;10.020;2022-09-13T05:26:02;42.22;;;28.08;;
15002;SDS011;7597;53.590;10.020;2022-09-13T05:28:28;42.90;;;27.13;;
15002;SDS011;7597;53.590;10.020;2022-09-13T05:30:59;47.00;;;29.25;;
15002;SDS011;7597;53.590;10.020;2022-09-13T05:33:26;46.60;;;29.90;;
15002;SDS011;7597;53.590;10.020;2022-09-13T05:35:52;46.95;;;30.83;;
15002;SDS011;7597;53.590;10.020;2022-09-13T05:38:19;47.55;;;30.15;;
15002;SDS011;7597;53.590;10.020;2022-09-13T05:43:28;47.45;;;30.40;;
15002;SDS011;7597;53.590;10.020;2022-09-13T05:46:00;47.72;;;30.70;;
15002;SDS011;7597;53.590;10.020;2022-09-13T05:48:32;49.95;;;31.62;;
15002;SDS011;7597;53.590;10.020;2022-09-13T05:51:32;52.40;;;32.35;;
15002;SDS011;7597;53.590;10.020;2022-09-13T05:53:43;47.55;;;31.25;;
15002;SDS011;7597;53.590;10.020;2022-09-13T05:56:13;50.17;;;32.72;;
15002;SDS011;7597;53.590;10.020;2022-09-13T05:58:40;54.28;;;32.00;;
15002;SDS011;7597;53.590;10.020;2022-09-13T06:01:07;47.75;;;30.65;;
15002;SDS011;7597;53.590;10.020;2022-09-13T06:03:33;48.30;;;30.70;;
15002;SDS011;7597;53.590;10.020;2022-09-13T06:06:01;49.88;;;31.90;;
15002;SDS011;7597;53.590;10.020;2022-09-13T06:08:30;52.55;;;31.42;;
15002;SDS011;7597;53.590;10.020;2022-09-13T06:10:58;46.15;;;29.87;;
15002;SDS011;7597;53.590;10.020;2022-09-13T06:13:24;45.50;;;28.90;;
15002;SDS011;7597;53.590;10.020;2022-09-13T06:15:51;46.65;;;30.52;;
15002;SDS011;7597;53.590;10.020;2022-09-13T06:18:17;45.80;;;30.08;;
15002;SDS011;7597;53.590;10.020;2022-09-13T06:20:45;44.70;;;30.23;;
15002;SDS011;7597;53.590;10.020;2022-09-13T06:23:11;45.95;;;30.00;;
15002;SDS011;7597;53.590;10.020;2022-09-13T06:25:38;44.38;;;28.05;;
15002;SDS011;7597;53.590;10.020;2022-09-13T06:28:05;42.40;;;27.90;;
15002;SDS011;7597;53.590;10.020;2022-09-13T06:30:32;45.08;;;27.90;;
15002;SDS011;7597;53.590;10.020;2022-09-13T06:32:59;43.67;;;28.55;;
15002;SDS011;7597;53.590;10.020;2022-09-13T06:35:25;42.67;;;27.77;;
15002;SDS011;7597;53.590;10.020;2022-09-13T06:37:54;42.60;;;28.85;;
15002;SDS011;7597;53.590;10.020;2022-09-13T06:40:21;43.75;;;28.33;;
15002;SDS011;7597;53.590;10.020;2022-09-13T06:42:48;39.97;;;26.48;;
15002;SDS011;7597;53.590;10.020;2022-09-13T06:45:14;32.35;;;24.48;;
15002;SDS011;7597;53.590;10.020;2022-09-13T06:47:41;35.10;;;24.40;;
15002;SDS011;7597;53.590;10.020;2022-09-13T06:50:08;26.70;;;21.87;;
15002;SDS011;7597;53.590;10.020;2022-09-13T06:52:35;20.92;;;17.62;;
15002;SDS011;7597;53.590;10.020;2022-09-13T06:55:02;19.02;;;16.50;;
15002;SDS011;7597;53.590;10.020;2022-09-13T06:57:29;18.27;;;14.95;;
15002;SDS011;7597;53.590;10.020;2022-09-13T06:59:56;22.83;;;15.85;;
15002;SDS011;7597;53.590;10.020;2022-09-13T07:02:23;15.75;;;14.07;;
15002;SDS011;7597;53.590;10.020;2022-09-13T07:04:49;20.40;;;15.70;;
15002;SDS011;7597;53.590;10.020;2022-09-13T07:07:16;19.12;;;16.02;;
15002;SDS011;7597;53.590;10.020;2022-09-13T07:09:43;18.67;;;15.10;;
15002;SDS011;7597;53.590;10.020;2022-09-13T07:12:10;16.70;;;14.52;;
15002;SDS011;7597;53.590;10.020;2022-09-13T07:14:37;18.70;;;14.40;;
15002;SDS011;7597;53.590;10.020;2022-09-13T07:17:04;20.58;;;15.10;;
15002;SDS011;7597;53.590;10.020;2022-09-13T07:19:31;16.80;;;14.13;;
15002;SDS011;7597;53.590;10.020;2022-09-13T07:21:57;20.12;;;14.02;;
15002;SDS011;7597;53.590;10.020;2022-09-13T07:24:24;17.40;;;13.88;;
15002;SDS011;7597;53.590;10.020;2022-09-13T07:26:51;19.37;;;14.43;;
15002;SDS011;7597;53.590;10.020;2022-09-13T07:29:19;18.67;;;14.48;;
15002;SDS011;7597;53.590;10.020;2022-09-13T07:31:46;18.00;;;13.57;;
15002;SDS011;7597;53.590;10.020;2022-09-13T07:34:12;15.18;;;12.85;;
15002;SDS011;7597;53.590;10.020;2022-09-13T07:36:38;17.70;;;12.73;;
15002;SDS011;7597;53.590;10.020;2022-09-13T07:39:05;19.48;;;14.15;;
15002;SDS011;7597;53.590;10.020;2022-09-13T07:41:32;16.35;;;12.37;;
15002;SDS011;7597;53.590;10.020;2022-09-13T07:43:59;16.42;;;12.05;;
15002;SDS011;7597;53.590;10.020;2022-09-13T07:46:26;16.40;;;10.68;;
15002;SDS011;7597;53.590;10.020;2022-09-13T07:48:53;14.82;;;9.77;;
15002;SDS011;7597;53.590;10.020;2022-09-13T07:51:20;14.18;;;9.60;;
15002;SDS011;7597;53.590;10.020;2022-09-13T07:53:46;13.57;;;9.50;;
15002;SDS011;7597;53.590;10.020;2022-09-13T07:58:59;12.65;;;9.95;;
15002;SDS011;7597;53.590;10.020;2022-09-13T08:01:28;16.00;;;9.20;;
15002;SDS011;7597;53.590;10.020;2022-09-13T08:03:56;16.02;;;9.05;;
15002;SDS011;7597;53.590;10.020;2022-09-13T08:06:22;10.50;;;8.02;;
15002;SDS011;7597;53.590;10.020;2022-09-13T08:08:48;12.48;;;8.10;;
15002;SDS011;7597;53.590;10.020;2022-09-13T08:11:16;12.37;;;7.53;;
15002;SDS011;7597;53.590;10.020;2022-09-13T08:13:43;9.55;;;6.40;;
15002;SDS011;7597;53.590;10.020;2022-09-13T08:16:09;9.02;;;6.28;;
15002;SDS011;7597;53.590;10.020;2022-09-13T08:18:36;7.60;;;4.47;;
15002;SDS011;7597;53.590;10.020;2022-09-13T08:21:02;7.68;;;3.83;;
15002;SDS011;7597;53.590;10.020;2022-09-13T08:23:29;8.88;;;3.83;;
15002;SDS011;7597;53.590;10.020;2022-09-13T08:25:59;8.63;;;3.90;;
15002;SDS011;7597;53.590;10.020;2022-09-13T08:28:22;8.18;;;3.75;;
15002;SDS011;7597;53.590;10.020;2022-09-13T08:30:49;7.07;;;3.20;;
15002;SDS011;7597;53.590;10.020;2022-09-13T08:33:16;7.18;;;3.15;;
15002;SDS011;7597;53.590;10.020;2022-09-13T08:35:48;9.18;;;3.58;;
15002;SDS011;7597;53.590;10.020;2022-09-13T08:38:17;4.95;;;2.85;;
15002;SDS011;7597;53.590;10.020;2022-09-13T08:40:47;4.53;;;2.60;;
15002;SDS011;7597;53.590;10.020;2022-09-13T08:43:18;6.12;;;3.22;;
15002;SDS011;7597;53.590;10.020;2022-09-13T08:45:48;4.80;;;2.40;;
15002;SDS011;7597;53.590;10.020;2022-09-13T08:48:15;4.87;;;2.20;;
15002;SDS011;7597;53.590;10.020;2022-09-13T08:50:41;6.75;;;2.30;;
15002;SDS011;7597;53.590;10.020;2022-09-13T08:53:14;5.00;;;2.17;;
15002;SDS011;7597;53.590;10.020;2022-09-13T08:55:45;6.78;;;2.20;;
15002;SDS011;7597;53.590;10.020;2022-09-13T08:58:29;4.15;;;1.90;;
15002;SDS011;7597;53.590;10.020;2022-09-13T09:00:58;2.95;;;1.55;;
15002;SDS011;7597;53.590;10.020;2022-09-13T09:03:26;4.43;;;1.65;;
15002;SDS011;7597;53.590;10.020;2022-09-13T09:06:11;5.78;;;1.75;;
15002;SDS011;7597;53.590;10.020;2022-09-13T09:08:45;4.30;;;1.58;;
15002;SDS011;7597;53.590;10.020;2022-09-13T09:11:15;5.55;;;1.75;;
15002;SDS011;7597;53.590;10.020;2022-09-13T09:13:44;6.50;;;1.73;;
15002;SDS011;7597;53.590;10.020;2022-09-13T09:16:16;5.70;;;1.37;;
15002;SDS011;7597;53.590;10.020;2022-09-13T09:18:42;4.37;;;1.40;;
15002;SDS011;7597;53.590;10.020;2022-09-13T09:21:10;2.97;;;1.62;;
15002;SDS011;7597;53.590;10.020;2022-09-13T09:23:40;5.25;;;1.70;;
15002;SDS011;7597;53.590;10.020;2022-09-13T09:26:25;4.60;;;1.45;;
15002;SDS011;7597;53.590;10.020;2022-09-13T09:28:53;6.45;;;1.73;;
15002;SDS011;7597;53.590;10.020;2022-09-13T09:34:09;4.60;;;1.90;;
15002;SDS011;7597;53.590;10.020;2022-09-13T09:36:38;6.50;;;3.58;;
15002;SDS011;7597;53.590;10.020;2022-09-13T09:39:08;5.53;;;2.85;;
15002;SDS011;7597;53.590;10.020;2022-09-13T09:41:33;5.15;;;1.83;;
15002;SDS011;7597;53.590;10.020;2022-09-13T09:44:09;6.18;;;1.87;;
15002;SDS011;7597;53.590;10.020;2022-09-13T09:46:36;7.53;;;3.60;;
15002;SDS011;7597;53.590;10.020;2022-09-13T09:49:11;5.07;;;3.55;;
15002;SDS011;7597;53.590;10.020;2022-09-13T09:51:38;4.07;;;2.15;;
15002;SDS011;7597;53.590;10.020;2022-09-13T09:54:05;4.97;;;1.73;;
15002;SDS011;7597;53.590;10.020;2022-09-13T09:56:32;5.68;;;1.70;;
15002;SDS011;7597;53.590;10.020;2022-09-13T09:58:58;4.82;;;1.92;;
15002;SDS011;7597;53.590;10.020;2022-09-13T10:01:26;18.77;;;14.90;;
15002;SDS011;7597;53.590;10.020;2022-09-13T10:03:57;15.60;;;12.37;;
15002;SDS011;7597;53.590;10.020;2022-09-13T10:06:24;9.95;;;4.75;;
15002;SDS011;7597;53.590;10.020;2022-09-13T10:08:53;3.90;;;2.78;;
15002;SDS011;7597;53.590;10.020;2022-09-13T10:11:20;6.37;;;4.53;;
15002;SDS011;7597;53.590;10.020;2022-09-13T10:16:25;5.03;;;2.65;;
15002;SDS011;7597;53.590;10.020;2022-09-13T10:18:51;3.40;;;1.73;;
15002;SDS011;7597;53.590;10.020;2022-09-13T10:21:21;7.68;;;4.70;;
15002;SDS011;7597;53.590;10.020;2022-09-13T10:23:47;5.43;;;2.78;;
15002;SDS011;7597;53.590;10.020;2022-09-13T10:26:14;6.32;;;2.90;;
15002;SDS011;7597;53.590;10.020;2022-09-13T10:28:44;3.37;;;1.65;;
15002;SDS011;7597;53.590;10.020;2022-09-13T10:31:10;5.18;;;2.60;;
15002;SDS011;7597;53.590;10.020;2022-09-13T10:33:38;5.75;;;2.47;;
15002;SDS011;7597;53.590;10.020;2022-09-13T10:36:06;4.90;;;2.87;;
15002;SDS011;7597;53.590;10.020;2022-09-13T10:38:35;8.23;;;4.78;;
15002;SDS011;7597;53.590;10.020;2022-09-13T10:41:02;6.85;;;2.17;;
15002;SDS011;7597;53.590;10.020;2022-09-13T10:43:28;4.62;;;2.10;;
15002;SDS011;7597;53.590;10.020;2022-09-13T10:45:55;5.30;;;1.90;;
15002;SDS011;7597;53.590;10.020;2022-09-13T10:48:22;5.55;;;3.67;;
15002;SDS011;7597;53.590;10.020;2022-09-13T10:53:33;8.35;;;5.68;;
15002;SDS011;7597;53.590;10.020;2022-09-13T10:55:59;6.62;;;3.65;;
15002;SDS011;7597;53.590;10.020;2022-09-13T10:58:27;5.10;;;2.08;;
15002;SDS011;7597;53.590;10.020;2022-09-13T11:03:49;5.40;;;1.85;;
15002;SDS011;7597;53.590;10.020;2022-09-13T11:06:21;4.85;;;1.80;;
15002;SDS011;7597;53.590;10.020;2022-09-13T11:08:52;3.95;;;1.62;;
15002;SDS011;7597;53.590;10.020;2022-09-13T11:12:25;2.95;;;1.50;;
15002;SDS011;7597;53.590;10.020;2022-09-13T11:14:49;5.07;;;1.70;;
15002;SDS011;7597;53.590;10.020;2022-09-13T11:17:18;5.32;;;1.60;;
15002;SDS011;7597;53.590;10.020;2022-09-13T11:20:51;3.67;;;1.40;;
15002;SDS011;7597;53.590;10.020;2022-09-13T11:22:26;5.15;;;1.62;;
15002;SDS011;7597;53.590;10.020;2022-09-13T11:25:02;3.92;;;1.42;;
15002;SDS011;7597;53.590;10.020;2022-09-13T11:27:40;6.07;;;1.70;;
15002;SDS011;7597;53.590;10.020;2022-09-13T11:30:10;7.00;;;5.47;;
15002;SDS011;7597;53.590;10.020;2022-09-13T11:32:51;4.30;;;1.90;;
15002;SDS011;7597;53.590;10.020;2022-09-13T11:35:27;5.37;;;2.05;;
15002;SDS011;7597;53.590;10.020;2022-09-13T11:39:16;5.80;;;1.60;;
15002;SDS011;7597;53.590;10.020;2022-09-13T11:41:07;4.05;;;1.37;;
15002;SDS011;7597;53.590;10.020;2022-09-13T11:43:39;4.85;;;1.60;;
15002;SDS011;7597;53.590;10.020;2022-09-13T11:46:09;5.80;;;1.67;;
15002;SDS011;7597;53.590;10.020;2022-09-13T11:48:39;4.68;;;1.45;;
15002;SDS011;7597;53.590;10.020;2022-09-13T11:51:11;6.07;;;2.00;;
15002;SDS011;7597;53.590;10.020;2022-09-13T11:53:42;3.92;;;1.58;;
15002;SDS011;7597;53.590;10.020;2022-09-13T11:56:07;4.22;;;1.73;;
15002;SDS011;7597;53.590;10.020;2022-09-13T11:58:36;6.57;;;1.77;;
15002;SDS011;7597;53.590;10.020;2022-09-13T12:01:03;4.87;;;1.50;;
15002;SDS011;7597;53.590;10.020;2022-09-13T12:03:33;3.05;;;1.60;;
15002;SDS011;7597;53.590;10.020;2022-09-13T12:06:00;3.62;;;1.70;;
15002;SDS011;7597;53.590;10.020;2022-09-13T12:08:28;6.50;;;1.65;;
15002;SDS011;7597;53.590;10.020;2022-09-13T12:10:56;6.82;;;1.95;;
15002;SDS011;7597;53.590;10.020;2022-09-13T12:13:28;5.93;;;1.70;;
15002;SDS011;7597;53.590;10.020;2022-09-13T12:15:54;3.53;;;1.65;;
15002;SDS011;7597;53.590;10.020;2022-09-13T12:18:21;5.75;;;1.50;;
15002;SDS011;7597;53.590;10.020;2022-09-13T12:21:03;4.78;;;1.80;;
15002;SDS011;7597;53.590;10.020;2022-09-13T12:23:38;5.78;;;1.60;;
15002;SDS011;7597;53.590;10.020;2022-09-13T12:26:06;11.12;;;2.58;;
15002;SDS011;7597;53.590;10.020;2022-09-13T12:28:34;4.15;;;1.73;;
15002;SDS011;7597;53.590;10.020;2022-09-13T12:31:01;4.72;;;1.92;;
15002;SDS011;7597;53.590;10.020;2022-09-13T12:33:26;5.70;;;1.90;;
15002;SDS011;7597;53.590;10.020;2022-09-13T12:38:52;4.80;;;1.42;;
15002;SDS011;7597;53.590;10.020;2022-09-13T12:41:20;5.22;;;2.10;;
15002;SDS011;7597;53.590;10.020;2022-09-13T12:46:57;3.90;;;1.75;;
15002;SDS011;7597;53.590;10.020;2022-09-13T12:49:25;5.40;;;1.80;;
15002;SDS011;7597;53.590;10.020;2022-09-13T12:51:57;2.45;;;1.50;;
15002;SDS011;7597;53.590;10.020;2022-09-13T12:54:39;4.55;;;1.65;;
15002;SDS011;7597;53.590;10.020;2022-09-13T12:57:24;5.75;;;1.50;;
15002;SDS011;7597;53.590;10.020;2022-09-13T13:02:37;8.00;;;1.98;;
15002;SDS011;7597;53.590;10.020;2022-09-13T13:05:17;5.30;;;1.98;;
15002;SDS011;7597;53.590;10.020;2022-09-13T13:07:38;6.37;;;1.77;;
15002;SDS011;7597;53.590;10.020;2022-09-13T13:10:05;5.62;;;2.05;;
15002;SDS011;7597;53.590;10.020;2022-09-13T13:12:36;6.20;;;1.67;;
15002;SDS011;7597;53.590;10.020;2022-09-13T13:15:04;6.25;;;1.67;;
15002;SDS011;7597;53.590;10.020;2022-09-13T13:17:33;5.97;;;2.00;;
15002;SDS011;7597;53.590;10.020;2022-09-13T13:22:52;4.37;;;1.52;;
15002;SDS011;7597;53.590;10.020;2022-09-13T13:27:57;4.12;;;1.58;;
15002;SDS011;7597;53.590;10.020;2022-09-13T13:33:12;3.08;;;1.40;;
15002;SDS011;7597;53.590;10.020;2022-09-13T13:35:41;6.28;;;1.73;;
15002;SDS011;7597;53.590;10.020;2022-09-13T13:38:13;9.13;;;1.62;;
15002;SDS011;7597;53.590;10.020;2022-09-13T13:40:55;6.47;;;1.60;;
15002;SDS011;7597;53.590;10.020;2022-09-13T13:43:28;5.15;;;1.60;;
15002;SDS011;7597;53.590;10.020;2022-09-13T13:45:56;7.03;;;1.50;;
15002;SDS011;7597;53.590;10.020;2022-09-13T13:51:33;5.05;;;1.50;;
15002;SDS011;7597;53.590;10.020;2022-09-13T13:53:46;7.03;;;4.12;;
15002;SDS011;7597;53.590;10.020;2022-09-13T13:56:18;6.72;;;3.08;;
15002;SDS011;7597;53.590;10.020;2022-09-13T13:58:53;6.90;;;1.90;;
15002;SDS011;7597;53.590;10.020;2022-09-13T14:01:21;4.68;;;1.98;;
15002;SDS011;7597;53.590;10.020;2022-09-13T14:03:49;5.25;;;1.75;;
15002;SDS011;7597;53.590;10.020;2022-09-13T14:09:05;8.85;;;1.90;;
15002;SDS011;7597;53.590;10.020;2022-09-13T14:11:50;3.12;;;1.50;;
15002;SDS011;7597;53.590;10.020;2022-09-13T14:19:39;9.48;;;2.12;;
15002;SDS011;7597;53.590;10.020;2022-09-13T14:22:06;6.78;;;1.80;;
15002;SDS011;7597;53.590;10.020;2022-09-13T14:24:47;4.32;;;1.77;;
15002;SDS011;7597;53.590;10.020;2022-09-13T14:27:18;6.15;;;1.80;;
15002;SDS011;7597;53.590;10.020;2022-09-13T14:29:47;8.52;;;2.12;;
15002;SDS011;7597;53.590;10.020;2022-09-13T14:32:15;7.47;;;2.15;;
15002;SDS011;7597;53.590;10.020;2022-09-13T14:34:48;6.40;;;2.10;;
15002;SDS011;7597;53.590;10.020;2022-09-13T14:37:15;4.57;;;1.62;;
15002;SDS011;7597;53.590;10.020;2022-09-13T14:39:33;6.75;;;2.17;;
15002;SDS011;7597;53.590;10.020;2022-09-13T14:42:02;6.68;;;2.10;;
15002;SDS011;7597;53.590;10.020;2022-09-13T14:44:28;4.65;;;2.10;;
15002;SDS011;7597;53.590;10.020;2022-09-13T14:47:02;8.82;;;2.30;;
15002;SDS011;7597;53.590;10.020;2022-09-13T14:49:32;5.93;;;2.17;;
15002;SDS011;7597;53.590;10.020;2022-09-13T14:52:00;5.82;;;1.60;;
15002;SDS011;7597;53.590;10.020;2022-09-13T14:54:29;5.87;;;1.58;;
15002;SDS011;7597;53.590;10.020;2022-09-13T14:56:57;7.15;;;1.85;;
15002;SDS011;7597;53.590;10.020;2022-09-13T14:59:30;5.97;;;1.70;;
15002;SDS011;7597;53.590;10.020;2022-09-13T15:01:56;5.30;;;1.98;;
15002;SDS011;7597;53.590;10.020;2022-09-13T15:04:22;6.40;;;1.85;;
15002;SDS011;7597;53.590;10.020;2022-09-13T15:09:27;8.45;;;1.90;;
15002;SDS011;7597;53.590;10.020;2022-09-13T15:11:56;6.90;;;1.70;;
15002;SDS011;7597;53.590;10.020;2022-09-13T15:17:09;5.72;;;2.28;;
15002;SDS011;7597;53.590;10.020;2022-09-13T15:19:36;9.60;;;2.08;;
15002;SDS011;7597;53.590;10.020;2022-09-13T15:22:10;7.60;;;2.10;;
15002;SDS011;7597;53.590;10.020;2022-09-13T15:24:38;7.70;;;1.80;;
15002;SDS011;7597;53.590;10.020;2022-09-13T15:27:05;7.07;;;1.98;;
15002;SDS011;7597;53.590;10.020;2022-09-13T15:29:31;7.15;;;3.05;;
15002;SDS011;7597;53.590;10.020;2022-09-13T15:31:59;10.73;;;4.75;;
15002;SDS011;7597;53.590;10.020;2022-09-13T15:34:27;9.05;;;3.37;;
15002;SDS011;7597;53.590;10.020;2022-09-13T15:37:07;9.98;;;3.15;;
15002;SDS011;7597;53.590;10.020;2022-09-13T15:42:09;5.95;;;2.22;;
15002;SDS011;7597;53.590;10.020;2022-09-13T15:44:35;5.15;;;1.80;;
15002;SDS011;7597;53.590;10.020;2022-09-13T15:47:02;5.85;;;1.98;;
15002;SDS011;7597;53.590;10.020;2022-09-13T15:49:29;6.12;;;1.85;;
15002;SDS011;7597;53.590;10.020;2022-09-13T15:51:56;6.40;;;2.65;;
15002;SDS011;7597;53.590;10.020;2022-09-13T15:54:23;8.30;;;2.37;;
15002;SDS011;7597;53.590;10.020;2022-09-13T15:56:49;8.57;;;3.08;;
15002;SDS011;7597;53.590;10.020;2022-09-13T15:59:17;4.95;;;2.05;;
15002;SDS011;7597;53.590;10.020;2022-09-13T16:01:43;5.62;;;1.90;;
15002;SDS011;7597;53.590;10.020;2022-09-13T16:04:10;6.93;;;2.20;;